sensor_id;sensor_type;location;lat;lon;timestamp;pressure;altitude;pressure_sealevel;temperature;humidity
43770;BME280;6597;52.218;9.882;2023-04-10T00:00:18;101644.88;;;3.82;100.00
43770;BME280;6597;52.218;9.882;2023-04-10T00:02:44;101643.16;;;3.80;100.00
43770;BME280;6597;52.218;9.882;2023-04-10T00:05:12;101644.84;;;3.73;100.00
43770;BME280;6597;52.218;9.882;2023-04-10T00:07:39;101643.03;;;3.61;100.00
43770;BME280;6597;52.218;9.882;2023-04-10T00:10:06;101649.00;;;3.53;100.00
43770;BME280;6597;52.218;9.882;2023-04-10T00:12:34;101646.28;;;3.36;100.00
43770;BME280;6597;52.218;9.882;2023-04-10T00:15:01;101646.22;;;3.28;100.00
43770;BME280;6597;52.218;9.882;2023-04-10T00:17:28;101648.72;;;3.22;100.00
43770;BME280;6597;52.218;9.882;2023-04-10T00:19:55;101649.53;;;3.15;100.00
43770;BME280;6597;52.218;9.882;2023-04-10T00:22:24;101658.97;;;3.07;100.00
43770;BME280;6597;52.218;9.882;2023-04-10T00:24:51;101649.44;;;3.06;100.00
43770;BME280;6597;52.218;9.882;2023-04-10T00:27:18;101652.00;;;3.01;100.00
43770;BME280;6597;52.218;9.882;2023-04-10T00:29:44;101647.66;;;2.97;100.00
43770;BME280;6597;52.218;9.882;2023-04-10T00:32:11;101654.53;;;2.94;100.00
43770;BME280;6597;52.218;9.882;2023-04-10T00:34:37;101642.34;;;2.88;100.00
43770;BME280;6597;52.218;9.882;2023-04-10T00:37:04;101638.84;;;2.83;100.00
43770;BME280;6597;52.218;9.882;2023-04-10T00:39:32;101641.38;;;2.78;100.00
43770;BME280;6597;52.218;9.882;2023-04-10T00:41:59;101637.88;;;2.75;100.00
43770;BME280;6597;52.218;9.882;2023-04-10T00:44:26;101629.22;;;2.71;100.00
43770;BME280;6597;52.218;9.882;2023-04-10T00:46:53;101624.00;;;2.68;100.00
43770;BME280;6597;52.218;9.882;2023-04-10T00:49:20;101620.53;;;2.68;100.00
43770;BME280;6597;52.218;9.882;2023-04-10T00:51:47;101624.72;;;2.58;100.00
43770;BME280;6597;52.218;9.882;2023-04-10T00:54:14;101617.75;;;2.53;100.00
43770;BME280;6597;52.218;9.882;2023-04-10T00:56:43;101619.41;;;2.46;100.00
43770;BME280;6597;52.218;9.882;2023-04-10T00:59:11;101622.81;;;2.40;100.00
43770;BME280;6597;52.218;9.882;2023-04-10T01:01:37;101616.78;;;2.43;100.00
43770;BME280;6597;52.218;9.882;2023-04-10T01:04:04;101624.53;;;2.40;100.00
43770;BME280;6597;52.218;9.882;2023-04-10T01:06:41;101615.81;;;2.33;100.00
43770;BME280;6597;52.218;9.882;2023-04-10T01:09:18;101617.44;;;2.27;100.00
43770;BME280;6597;52.218;9.882;2023-04-10T01:11:52;101616.47;;;2.18;100.00
43770;BME280;6597;52.218;9.882;2023-04-10T01:14:26;101621.53;;;2.08;100.00
43770;BME280;6597;52.218;9.882;2023-04-10T01:17:02;101622.38;;;2.07;100.00
43770;BME280;6597;52.218;9.882;2023-04-10T01:19:47;101627.44;;;1.99;100.00
43770;BME280;6597;52.218;9.882;2023-04-10T01:22:20;101626.53;;;1.96;100.00
43770;BME280;6597;52.218;9.882;2023-04-10T01:25:03;101630.00;;;1.96;100.00
43770;BME280;6597;52.218;9.882;2023-04-10T01:27:46;101628.34;;;2.01;100.00
43770;BME280;6597;52.218;9.882;2023-04-10T01:30:21;101628.38;;;2.04;100.00
43770;BME280;6597;52.218;9.882;2023-04-10T01:32:48;101626.72;;;2.09;100.00
43770;BME280;6597;52.218;9.882;2023-04-10T01:35:17;101621.56;;;2.12;100.00
43770;BME280;6597;52.218;9.882;2023-04-10T01:37:46;101618.13;;;2.12;100.00
43770;BME280;6597;52.218;9.882;2023-04-10T01:40:16;101627.63;;;2.13;100.00
43770;BME280;6597;52.218;9.882;2023-04-10T01:42:46;101630.13;;;2.07;100.00
43770;BME280;6597;52.218;9.882;2023-04-10T01:45:17;101622.31;;;2.02;100.00
43770;BME280;6597;52.218;9.882;2023-04-10T01:47:47;101625.81;;;2.07;100.00
43770;BME280;6597;52.218;9.882;2023-04-10T01:50:14;101619.84;;;2.11;100.00
43770;BME280;6597;52.218;9.882;2023-04-10T01:52:41;101618.13;;;2.12;100.00
43770;BME280;6597;52.218;9.882;2023-04-10T01:55:28;101619.00;;;2.14;100.00
43770;BME280;6597;52.218;9.882;2023-04-10T01:58:01;101618.16;;;2.15;100.00
43770;BME280;6597;52.218;9.882;2023-04-10T02:00:29;101621.59;;;2.14;100.00
43770;BME280;6597;52.218;9.882;2023-04-10T02:02:57;101616.41;;;2.14;100.00
43770;BME280;6597;52.218;9.882;2023-04-10T02:05:26;101612.13;;;2.16;100.00
43770;BME280;6597;52.218;9.882;2023-04-10T02:07:59;101606.94;;;2.16;100.00
43770;BME280;6597;52.218;9.882;2023-04-10T02:10:29;101606.97;;;2.17;100.00
43770;BME280;6597;52.218;9.882;2023-04-10T02:12:59;101601.00;;;2.25;100.00
43770;BME280;6597;52.218;9.882;2023-04-10T02:15:27;101602.81;;;2.29;100.00
43770;BME280;6597;52.218;9.882;2023-04-10T02:17:58;101599.28;;;2.27;100.00
43770;BME280;6597;52.218;9.882;2023-04-10T02:20:26;101588.88;;;2.22;100.00
43770;BME280;6597;52.218;9.882;2023-04-10T02:22:53;101604.47;;;2.25;100.00
43770;BME280;6597;52.218;9.882;2023-04-10T02:25:19;101595.81;;;2.25;100.00
43770;BME280;6597;52.218;9.882;2023-04-10T02:27:47;101594.94;;;2.23;100.00
43770;BME280;6597;52.218;9.882;2023-04-10T02:30:14;101594.94;;;2.24;100.00
43770;BME280;6597;52.218;9.882;2023-04-10T02:32:41;101590.56;;;2.18;100.00
43770;BME280;6597;52.218;9.882;2023-04-10T02:35:09;101589.69;;;2.16;100.00
43770;BME280;6597;52.218;9.882;2023-04-10T02:37:36;101589.59;;;2.09;100.00
43770;BME280;6597;52.218;9.882;2023-04-10T02:40:03;101585.22;;;2.05;100.00
43770;BME280;6597;52.218;9.882;2023-04-10T02:42:40;101574.84;;;2.02;100.00
43770;BME280;6597;52.218;9.882;2023-04-10T02:45:07;101572.19;;;1.99;100.00
43770;BME280;6597;52.218;9.882;2023-04-10T02:47:38;101579.06;;;1.95;100.00
43770;BME280;6597;52.218;9.882;2023-04-10T02:50:06;101578.13;;;1.92;100.00
43770;BME280;6597;52.218;9.882;2023-04-10T02:52:37;101572.03;;;1.88;100.00
43770;BME280;6597;52.218;9.882;2023-04-10T02:55:04;101572.84;;;1.84;100.00
43770;BME280;6597;52.218;9.882;2023-04-10T02:57:34;101572.81;;;1.81;100.00
43770;BME280;6597;52.218;9.882;2023-04-10T03:00:01;101565.06;;;1.82;100.00
43770;BME280;6597;52.218;9.882;2023-04-10T03:02:34;101572.00;;;1.85;100.00
43770;BME280;6597;52.218;9.882;2023-04-10T03:05:09;101565.91;;;1.80;100.00
43770;BME280;6597;52.218;9.882;2023-04-10T03:07:37;101571.06;;;1.80;100.00
43770;BME280;6597;52.218;9.882;2023-04-10T03:10:05;101564.13;;;1.76;100.00
43770;BME280;6597;52.218;9.882;2023-04-10T03:12:31;101568.41;;;1.74;100.00
43770;BME280;6597;52.218;9.882;2023-04-10T03:14:59;101567.56;;;1.75;100.00
43770;BME280;6597;52.218;9.882;2023-04-10T03:17:25;101560.63;;;1.74;100.00
43770;BME280;6597;52.218;9.882;2023-04-10T03:19:52;101554.63;;;1.75;100.00
43770;BME280;6597;52.218;9.882;2023-04-10T03:22:18;101550.31;;;1.75;100.00
43770;BME280;6597;52.218;9.882;2023-04-10T03:24:46;101551.19;;;1.76;100.00
43770;BME280;6597;52.218;9.882;2023-04-10T03:27:13;101546.84;;;1.75;100.00
43770;BME280;6597;52.218;9.882;2023-04-10T03:29:40;101550.28;;;1.74;100.00
43770;BME280;6597;52.218;9.882;2023-04-10T03:32:06;101558.91;;;1.73;100.00
43770;BME280;6597;52.218;9.882;2023-04-10T03:34:33;101543.34;;;1.71;100.00
43770;BME280;6597;52.218;9.882;2023-04-10T03:37:00;101541.63;;;1.70;100.00
43770;BME280;6597;52.218;9.882;2023-04-10T03:39:28;101536.41;;;1.69;100.00
43770;BME280;6597;52.218;9.882;2023-04-10T03:41:56;101541.56;;;1.66;100.00
43770;BME280;6597;52.218;9.882;2023-04-10T03:44:23;101536.38;;;1.66;100.00
43770;BME280;6597;52.218;9.882;2023-04-10T03:46:51;101542.34;;;1.62;100.00
43770;BME280;6597;52.218;9.882;2023-04-10T03:49:18;101531.91;;;1.55;100.00
43770;BME280;6597;52.218;9.882;2023-04-10T03:51:45;101524.03;;;1.48;100.00
43770;BME280;6597;52.218;9.882;2023-04-10T03:54:12;101533.47;;;1.44;100.00
43770;BME280;6597;52.218;9.882;2023-04-10T03:56:38;101536.03;;;1.41;100.00
43770;BME280;6597;52.218;9.882;2023-04-10T03:59:06;101529.97;;;1.41;100.00
43770;BME280;6597;52.218;9.882;2023-04-10T04:01:38;101535.13;;;1.39;100.00
43770;BME280;6597;52.218;9.882;2023-04-10T04:04:08;101540.28;;;1.38;100.00
43770;BME280;6597;52.218;9.882;2023-04-10T04:06:55;101539.41;;;1.37;100.00
43770;BME280;6597;52.218;9.882;2023-04-10T04:09:29;101536.78;;;1.34;100.00
43770;BME280;6597;52.218;9.882;2023-04-10T04:12:18;101532.47;;;1.33;100.00
43770;BME280;6597;52.218;9.882;2023-04-10T04:15:03;101534.09;;;1.30;100.00
43770;BME280;6597;52.218;9.882;2023-04-10T04:17:50;101536.69;;;1.30;100.00
43770;BME280;6597;52.218;9.882;2023-04-10T04:20:37;101528.88;;;1.27;100.00
43770;BME280;6597;52.218;9.882;2023-04-10T04:23:12;101525.44;;;1.26;100.00
43770;BME280;6597;52.218;9.882;2023-04-10T04:25:57;101527.16;;;1.27;100.00
43770;BME280;6597;52.218;9.882;2023-04-10T04:28:42;101527.16;;;1.27;100.00
43770;BME280;6597;52.218;9.882;2023-04-10T04:31:29;101534.22;;;1.36;100.00
43770;BME280;6597;52.218;9.882;2023-04-10T04:34:16;101536.75;;;1.33;100.00
43770;BME280;6597;52.218;9.882;2023-04-10T04:37:03;101541.09;;;1.34;100.00
43770;BME280;6597;52.218;9.882;2023-04-10T04:39:37;101532.44;;;1.32;100.00
43770;BME280;6597;52.218;9.882;2023-04-10T04:42:19;101531.56;;;1.31;100.00
43770;BME280;6597;52.218;9.882;2023-04-10T04:44:59;101534.19;;;1.34;100.00
43770;BME280;6597;52.218;9.882;2023-04-10T04:47:43;101533.41;;;1.40;100.00
43770;BME280;6597;52.218;9.882;2023-04-10T04:50:25;101527.34;;;1.36;100.00
43770;BME280;6597;52.218;9.882;2023-04-10T04:53:12;101537.63;;;1.33;100.00
43770;BME280;6597;52.218;9.882;2023-04-10T04:56:02;101531.66;;;1.37;100.00
43770;BME280;6597;52.218;9.882;2023-04-10T04:58:58;101543.78;;;1.41;100.00
43770;BME280;6597;52.218;9.882;2023-04-10T05:01:45;101542.03;;;1.40;100.00
43770;BME280;6597;52.218;9.882;2023-04-10T05:04:35;101534.31;;;1.43;100.00
43770;BME280;6597;52.218;9.882;2023-04-10T05:07:08;101531.81;;;1.48;100.00
43770;BME280;6597;52.218;9.882;2023-04-10T05:09:51;101532.78;;;1.56;100.00
43770;BME280;6597;52.218;9.882;2023-04-10T05:12:20;101531.97;;;1.62;100.00
43770;BME280;6597;52.218;9.882;2023-04-10T05:15:02;101535.56;;;1.68;100.00
43770;BME280;6597;52.218;9.882;2023-04-10T05:17:42;101539.09;;;1.75;100.00
43770;BME280;6597;52.218;9.882;2023-04-10T05:20:19;101539.19;;;1.84;100.00
43770;BME280;6597;52.218;9.882;2023-04-10T05:23:12;101541.03;;;1.93;100.00
43770;BME280;6597;52.218;9.882;2023-04-10T05:26:12;101545.50;;;2.03;100.00
43770;BME280;6597;52.218;9.882;2023-04-10T05:28:51;101546.44;;;2.11;100.00
43770;BME280;6597;52.218;9.882;2023-04-10T05:31:36;101544.84;;;2.24;100.00
43770;BME280;6597;52.218;9.882;2023-04-10T05:34:26;101530.31;;;2.35;100.00
43770;BME280;6597;52.218;9.882;2023-04-10T05:37:09;101530.41;;;2.44;100.00
43770;BME280;6597;52.218;9.882;2023-04-10T05:40:09;101535.69;;;2.53;100.00
43770;BME280;6597;52.218;9.882;2023-04-10T05:42:55;101539.25;;;2.61;100.00
43770;BME280;6597;52.218;9.882;2023-04-10T05:45:43;101533.28;;;2.70;100.00
43770;BME280;6597;52.218;9.882;2023-04-10T05:48:26;101529.91;;;2.80;100.00
43770;BME280;6597;52.218;9.882;2023-04-10T05:51:06;101528.31;;;2.94;100.00
43770;BME280;6597;52.218;9.882;2023-04-10T05:53:52;101535.38;;;3.15;100.00
43770;BME280;6597;52.218;9.882;2023-04-10T05:56:38;101537.25;;;3.33;100.00
43770;BME280;6597;52.218;9.882;2023-04-10T05:59:22;101538.22;;;3.49;100.00
43770;BME280;6597;52.218;9.882;2023-04-10T06:02:00;101531.41;;;3.63;100.00
43770;BME280;6597;52.218;9.882;2023-04-10T06:04:27;101538.41;;;3.79;100.00
43770;BME280;6597;52.218;9.882;2023-04-10T06:06:56;101541.97;;;3.96;100.00
43770;BME280;6597;52.218;9.882;2023-04-10T06:09:24;101541.13;;;4.08;100.00
43770;BME280;6597;52.218;9.882;2023-04-10T06:11:51;101538.56;;;4.16;100.00
43770;BME280;6597;52.218;9.882;2023-04-10T06:14:20;101535.16;;;4.29;100.00
43770;BME280;6597;52.218;9.882;2023-04-10T06:16:47;101530.84;;;4.45;100.00
43770;BME280;6597;52.218;9.882;2023-04-10T06:19:14;101532.63;;;4.62;100.00
43770;BME280;6597;52.218;9.882;2023-04-10T06:21:40;101523.97;;;4.74;100.00
43770;BME280;6597;52.218;9.882;2023-04-10T06:24:07;101524.88;;;4.90;100.00
43770;BME280;6597;52.218;9.882;2023-04-10T06:26:36;101520.53;;;5.06;100.00
43770;BME280;6597;52.218;9.882;2023-04-10T06:29:03;101521.38;;;5.18;100.00
43770;BME280;6597;52.218;9.882;2023-04-10T06:31:32;101515.31;;;5.25;100.00
43770;BME280;6597;52.218;9.882;2023-04-10T06:33:59;101514.41;;;5.40;100.00
43770;BME280;6597;52.218;9.882;2023-04-10T06:36:25;101510.94;;;5.55;100.00
43770;BME280;6597;52.218;9.882;2023-04-10T06:38:58;101510.88;;;5.70;100.00
43770;BME280;6597;52.218;9.882;2023-04-10T06:41:27;101509.97;;;5.91;100.00
43770;BME280;6597;52.218;9.882;2023-04-10T06:44:00;101500.31;;;6.13;100.00
43770;BME280;6597;52.218;9.882;2023-04-10T06:46:27;101495.00;;;6.34;100.00
43770;BME280;6597;52.218;9.882;2023-04-10T06:48:53;101495.75;;;6.53;100.00
43770;BME280;6597;52.218;9.882;2023-04-10T06:51:20;101496.47;;;6.73;100.00
43770;BME280;6597;52.218;9.882;2023-04-10T06:53:46;101493.69;;;6.95;100.00
43770;BME280;6597;52.218;9.882;2023-04-10T06:56:13;101492.63;;;7.18;100.00
43770;BME280;6597;52.218;9.882;2023-04-10T06:58:39;101499.28;;;7.47;100.00
43770;BME280;6597;52.218;9.882;2023-04-10T07:01:07;101498.97;;;7.74;98.42
43770;BME280;6597;52.218;9.882;2023-04-10T07:03:34;101488.19;;;8.02;95.81
43770;BME280;6597;52.218;9.882;2023-04-10T07:06:00;101493.09;;;8.26;93.14
43770;BME280;6597;52.218;9.882;2023-04-10T07:08:27;101482.28;;;8.54;92.49
43770;BME280;6597;52.218;9.882;2023-04-10T07:10:54;101481.75;;;8.87;90.38
43770;BME280;6597;52.218;9.882;2023-04-10T07:13:20;101477.63;;;9.23;88.22
43770;BME280;6597;52.218;9.882;2023-04-10T07:15:47;101481.22;;;9.64;86.13
43770;BME280;6597;52.218;9.882;2023-04-10T07:18:14;101478.56;;;10.07;82.51
43770;BME280;6597;52.218;9.882;2023-04-10T07:20:41;101466.28;;;10.51;81.37
43770;BME280;6597;52.218;9.882;2023-04-10T07:23:07;101464.47;;;10.88;78.31
43770;BME280;6597;52.218;9.882;2023-04-10T07:25:35;101460.72;;;11.31;69.81
43770;BME280;6597;52.218;9.882;2023-04-10T07:28:02;101455.13;;;11.76;67.53
43770;BME280;6597;52.218;9.882;2023-04-10T07:30:28;101450.53;;;12.13;61.95
43770;BME280;6597;52.218;9.882;2023-04-10T07:32:55;101455.19;;;12.32;60.42
43770;BME280;6597;52.218;9.882;2023-04-10T07:35:23;101446.19;;;12.67;59.40
43770;BME280;6597;52.218;9.882;2023-04-10T07:37:49;101445.94;;;13.01;59.36
43770;BME280;6597;52.218;9.882;2023-04-10T07:40:17;101448.97;;;13.15;56.89
43770;BME280;6597;52.218;9.882;2023-04-10T07:42:43;101443.50;;;13.21;56.93
43770;BME280;6597;52.218;9.882;2023-04-10T07:45:10;101443.38;;;13.24;54.39
43770;BME280;6597;52.218;9.882;2023-04-10T07:47:37;101444.72;;;13.11;54.09
43770;BME280;6597;52.218;9.882;2023-04-10T07:50:05;101440.44;;;13.33;55.78
43770;BME280;6597;52.218;9.882;2023-04-10T07:52:33;101442.69;;;13.44;55.08
43770;BME280;6597;52.218;9.882;2023-04-10T07:55:00;101436.97;;;13.56;53.20
43770;BME280;6597;52.218;9.882;2023-04-10T07:57:27;101433.34;;;13.59;53.79
43770;BME280;6597;52.218;9.882;2023-04-10T07:59:53;101441.47;;;13.78;53.35
43770;BME280;6597;52.218;9.882;2023-04-10T08:02:20;101433.13;;;14.12;53.48
43770;BME280;6597;52.218;9.882;2023-04-10T08:04:47;101424.56;;;14.27;51.38
43770;BME280;6597;52.218;9.882;2023-04-10T08:07:13;101423.31;;;14.37;51.94
43770;BME280;6597;52.218;9.882;2023-04-10T08:09:41;101424.69;;;14.24;51.00
43770;BME280;6597;52.218;9.882;2023-04-10T08:12:08;101421.31;;;14.44;50.84
43770;BME280;6597;52.218;9.882;2023-04-10T08:14:34;101419.81;;;14.37;50.13
43770;BME280;6597;52.218;9.882;2023-04-10T08:17:01;101420.09;;;14.29;50.42
43770;BME280;6597;52.218;9.882;2023-04-10T08:19:27;101419.31;;;14.71;51.29
43770;BME280;6597;52.218;9.882;2023-04-10T08:21:54;101407.09;;;14.68;50.38
43770;BME280;6597;52.218;9.882;2023-04-10T08:24:20;101417.59;;;14.90;49.44
43770;BME280;6597;52.218;9.882;2023-04-10T08:26:48;101411.78;;;14.82;49.41
43770;BME280;6597;52.218;9.882;2023-04-10T08:29:15;101417.28;;;15.18;48.76
43770;BME280;6597;52.218;9.882;2023-04-10T08:31:41;101413.38;;;15.26;48.96
43770;BME280;6597;52.218;9.882;2023-04-10T08:34:08;101402.13;;;15.62;48.69
43770;BME280;6597;52.218;9.882;2023-04-10T08:36:34;101402.75;;;15.86;48.51
43770;BME280;6597;52.218;9.882;2023-04-10T08:39:01;101398.41;;;15.85;46.42
43770;BME280;6597;52.218;9.882;2023-04-10T08:41:27;101397.59;;;15.83;46.31
43770;BME280;6597;52.218;9.882;2023-04-10T08:43:56;101403.97;;;15.79;46.55
43770;BME280;6597;52.218;9.882;2023-04-10T08:46:23;101391.63;;;15.98;45.29
43770;BME280;6597;52.218;9.882;2023-04-10T08:48:54;101395.75;;;16.04;45.41
43770;BME280;6597;52.218;9.882;2023-04-10T08:51:31;101386.34;;;16.15;45.64
43770;BME280;6597;52.218;9.882;2023-04-10T08:54:06;101377.38;;;16.37;44.23
43770;BME280;6597;52.218;9.882;2023-04-10T08:56:34;101383.84;;;16.31;44.26
43770;BME280;6597;52.218;9.882;2023-04-10T08:59:03;101374.16;;;16.30;44.02
43770;BME280;6597;52.218;9.882;2023-04-10T09:01:30;101375.06;;;16.12;44.46
43770;BME280;6597;52.218;9.882;2023-04-10T09:03:59;101362.97;;;16.42;44.65
43770;BME280;6597;52.218;9.882;2023-04-10T09:06:25;101367.91;;;16.67;44.52
43770;BME280;6597;52.218;9.882;2023-04-10T09:08:52;101369.16;;;16.60;43.15
43770;BME280;6597;52.218;9.882;2023-04-10T09:11:18;101374.63;;;16.92;43.93
43770;BME280;6597;52.218;9.882;2023-04-10T09:13:45;101365.13;;;17.21;44.60
43770;BME280;6597;52.218;9.882;2023-04-10T09:16:13;101362.31;;;17.57;42.23
43770;BME280;6597;52.218;9.882;2023-04-10T09:18:42;101361.59;;;17.37;41.98
43770;BME280;6597;52.218;9.882;2023-04-10T09:21:09;101354.81;;;17.32;41.82
43770;BME280;6597;52.218;9.882;2023-04-10T09:23:36;101354.84;;;17.15;43.29
43770;BME280;6597;52.218;9.882;2023-04-10T09:26:21;101346.34;;;17.25;42.06
43770;BME280;6597;52.218;9.882;2023-04-10T09:28:55;101345.63;;;17.22;42.18
43770;BME280;6597;52.218;9.882;2023-04-10T09:31:29;101344.88;;;17.02;43.04
43770;BME280;6597;52.218;9.882;2023-04-10T09:34:13;101329.25;;;17.14;42.17
43770;BME280;6597;52.218;9.882;2023-04-10T09:36:41;101319.94;;;17.22;42.38
43770;BME280;6597;52.218;9.882;2023-04-10T09:39:08;101314.94;;;17.00;41.19
43770;BME280;6597;52.218;9.882;2023-04-10T09:41:46;101308.09;;;16.96;42.06
43770;BME280;6597;52.218;9.882;2023-04-10T09:44:13;101306.22;;;16.81;41.70
43770;BME280;6597;52.218;9.882;2023-04-10T09:46:41;101297.75;;;17.07;41.85
43770;BME280;6597;52.218;9.882;2023-04-10T09:49:07;101300.97;;;17.30;41.43
43770;BME280;6597;52.218;9.882;2023-04-10T09:51:34;101289.63;;;17.59;41.01
43770;BME280;6597;52.218;9.882;2023-04-10T09:54:02;101282.41;;;17.61;40.10
43770;BME280;6597;52.218;9.882;2023-04-10T09:56:29;101273.78;;;17.58;39.54
43770;BME280;6597;52.218;9.882;2023-04-10T09:58:57;101273.47;;;17.15;40.43
43770;BME280;6597;52.218;9.882;2023-04-10T10:01:25;101264.34;;;17.36;40.99
43770;BME280;6597;52.218;9.882;2023-04-10T10:03:54;101260.72;;;17.53;40.90
43770;BME280;6597;52.218;9.882;2023-04-10T10:06:22;101256.72;;;17.78;38.90
43770;BME280;6597;52.218;9.882;2023-04-10T10:08:49;101254.16;;;17.60;39.78
43770;BME280;6597;52.218;9.882;2023-04-10T10:11:18;101248.84;;;17.76;39.22
43770;BME280;6597;52.218;9.882;2023-04-10T10:13:49;101252.19;;;17.95;38.47
43770;BME280;6597;52.218;9.882;2023-04-10T10:16:20;101242.41;;;17.96;39.62
43770;BME280;6597;52.218;9.882;2023-04-10T10:18:51;101241.00;;;18.49;39.95
43770;BME280;6597;52.218;9.882;2023-04-10T10:21:22;101234.31;;;18.57;38.95
43770;BME280;6597;52.218;9.882;2023-04-10T10:23:50;101234.44;;;18.84;38.96
43770;BME280;6597;52.218;9.882;2023-04-10T10:26:19;101230.72;;;19.15;38.99
43770;BME280;6597;52.218;9.882;2023-04-10T10:28:48;101232.41;;;19.16;38.77
43770;BME280;6597;52.218;9.882;2023-04-10T10:31:15;101230.25;;;18.80;39.08
43770;BME280;6597;52.218;9.882;2023-04-10T10:33:42;101219.03;;;18.61;38.65
43770;BME280;6597;52.218;9.882;2023-04-10T10:36:11;101218.31;;;18.43;39.04
43770;BME280;6597;52.218;9.882;2023-04-10T10:38:45;101215.59;;;18.15;39.33
43770;BME280;6597;52.218;9.882;2023-04-10T10:41:18;101214.59;;;18.31;39.49
43770;BME280;6597;52.218;9.882;2023-04-10T10:43:51;101208.72;;;18.41;39.40
43770;BME280;6597;52.218;9.882;2023-04-10T10:46:27;101206.22;;;18.68;38.63
43770;BME280;6597;52.218;9.882;2023-04-10T10:48:58;101196.88;;;19.17;38.33
43770;BME280;6597;52.218;9.882;2023-04-10T10:51:44;101185.66;;;19.26;37.75
43770;BME280;6597;52.218;9.882;2023-04-10T10:54:29;101178.56;;;19.40;37.62
43770;BME280;6597;52.218;9.882;2023-04-10T10:56:56;101179.47;;;19.12;37.45
43770;BME280;6597;52.218;9.882;2023-04-10T10:59:52;101163.56;;;18.98;36.42
43770;BME280;6597;52.218;9.882;2023-04-10T11:02:19;101170.03;;;18.79;37.79
43770;BME280;6597;52.218;9.882;2023-04-10T11:04:47;101163.38;;;18.58;37.34
43770;BME280;6597;52.218;9.882;2023-04-10T11:07:14;101169.91;;;18.38;36.95
43770;BME280;6597;52.218;9.882;2023-04-10T11:09:51;101152.47;;;18.77;37.25
43770;BME280;6597;52.218;9.882;2023-04-10T11:12:21;101140.75;;;18.93;37.72
43770;BME280;6597;52.218;9.882;2023-04-10T11:14:58;101139.88;;;19.34;36.70
43770;BME280;6597;52.218;9.882;2023-04-10T11:17:48;101135.66;;;19.44;36.00
43770;BME280;6597;52.218;9.882;2023-04-10T11:20:15;101133.53;;;19.49;37.20
43770;BME280;6597;52.218;9.882;2023-04-10T11:23:06;101125.63;;;19.35;36.79
43770;BME280;6597;52.218;9.882;2023-04-10T11:25:47;101118.72;;;19.45;36.91
43770;BME280;6597;52.218;9.882;2023-04-10T11:28:33;101106.09;;;19.22;36.27
43770;BME280;6597;52.218;9.882;2023-04-10T11:31:13;101099.25;;;19.45;35.52
43770;BME280;6597;52.218;9.882;2023-04-10T11:33:42;101098.34;;;19.32;35.80
43770;BME280;6597;52.218;9.882;2023-04-10T11:36:13;101090.63;;;19.14;35.87
43770;BME280;6597;52.218;9.882;2023-04-10T11:38:40;101088.28;;;19.49;35.40
43770;BME280;6597;52.218;9.882;2023-04-10T11:41:08;101079.94;;;19.55;34.93
43770;BME280;6597;52.218;9.882;2023-04-10T11:43:34;101081.44;;;19.33;35.25
43770;BME280;6597;52.218;9.882;2023-04-10T11:46:03;101074.94;;;19.37;34.58
43770;BME280;6597;52.218;9.882;2023-04-10T11:48:31;101051.84;;;20.02;36.46
43770;BME280;6597;52.218;9.882;2023-04-10T11:50:57;101052.63;;;20.66;34.11
43770;BME280;6597;52.218;9.882;2023-04-10T11:53:26;101046.66;;;20.63;33.03
43770;BME280;6597;52.218;9.882;2023-04-10T11:55:54;101047.47;;;20.27;34.10
43770;BME280;6597;52.218;9.882;2023-04-10T11:58:24;101033.06;;;20.04;34.21
43770;BME280;6597;52.218;9.882;2023-04-10T12:00:58;101017.16;;;20.15;33.80
43770;BME280;6597;52.218;9.882;2023-04-10T12:03:36;101032.41;;;20.13;34.17
43770;BME280;6597;52.218;9.882;2023-04-10T12:06:06;101027.75;;;20.16;34.43
43770;BME280;6597;52.218;9.882;2023-04-10T12:08:33;101029.88;;;20.24;34.58
43770;BME280;6597;52.218;9.882;2023-04-10T12:11:00;101024.22;;;20.03;33.59
43770;BME280;6597;52.218;9.882;2023-04-10T12:13:29;101017.50;;;19.72;33.19
43770;BME280;6597;52.218;9.882;2023-04-10T12:15:57;101017.63;;;19.83;33.42
43770;BME280;6597;52.218;9.882;2023-04-10T12:18:25;101015.28;;;19.53;33.53
43770;BME280;6597;52.218;9.882;2023-04-10T12:20:52;101016.78;;;19.31;33.96
43770;BME280;6597;52.218;9.882;2023-04-10T12:23:21;101004.34;;;19.31;35.18
43770;BME280;6597;52.218;9.882;2023-04-10T12:25:47;101001.13;;;19.66;35.30
43770;BME280;6597;52.218;9.882;2023-04-10T12:28:18;101000.53;;;20.24;34.61
43770;BME280;6597;52.218;9.882;2023-04-10T12:30:47;100990.38;;;20.42;33.45
43770;BME280;6597;52.218;9.882;2023-04-10T12:33:19;100985.94;;;20.66;32.88
43770;BME280;6597;52.218;9.882;2023-04-10T12:35:46;100977.94;;;20.90;33.36
43770;BME280;6597;52.218;9.882;2023-04-10T12:38:13;100983.59;;;21.09;33.88
43770;BME280;6597;52.218;9.882;2023-04-10T12:40:57;100975.19;;;20.18;33.51
43770;BME280;6597;52.218;9.882;2023-04-10T12:43:33;100973.59;;;20.03;33.84
43770;BME280;6597;52.218;9.882;2023-04-10T12:46:01;100972.69;;;20.28;33.64
43770;BME280;6597;52.218;9.882;2023-04-10T12:48:28;100980.41;;;20.20;34.33
43770;BME280;6597;52.218;9.882;2023-04-10T12:50:55;100972.22;;;19.72;34.18
43770;BME280;6597;52.218;9.882;2023-04-10T12:53:21;100965.00;;;19.74;34.71
43770;BME280;6597;52.218;9.882;2023-04-10T12:55:59;100967.03;;;19.58;34.79
43770;BME280;6597;52.218;9.882;2023-04-10T12:58:26;100960.25;;;19.27;35.42
43770;BME280;6597;52.218;9.882;2023-04-10T13:00:54;100969.31;;;19.37;34.90
43770;BME280;6597;52.218;9.882;2023-04-10T13:03:22;100944.31;;;19.52;35.46
43770;BME280;6597;52.218;9.882;2023-04-10T13:05:48;100967.13;;;19.56;34.83
43770;BME280;6597;52.218;9.882;2023-04-10T13:08:16;100951.63;;;19.36;36.38
43770;BME280;6597;52.218;9.882;2023-04-10T13:10:42;100941.94;;;19.22;36.60
43770;BME280;6597;52.218;9.882;2023-04-10T13:13:09;100944.00;;;18.92;36.94
43770;BME280;6597;52.218;9.882;2023-04-10T13:15:37;100939.06;;;18.86;37.47
43770;BME280;6597;52.218;9.882;2023-04-10T13:18:05;100936.25;;;18.62;37.31
43770;BME280;6597;52.218;9.882;2023-04-10T13:20:34;100928.72;;;18.69;37.90